sensor_id;sensor_type;location;lat;lon;timestamp;P1;durP1;ratioP1;P2;durP2;ratioP2
56429;SDS011;42332;52.136;20.666;2023-11-21T00:01:05;14.57;;;5.63;;
56429;SDS011;42332;52.136;20.666;2023-11-21T00:03:33;23.35;;;7.90;;
56429;SDS011;42332;52.136;20.666;2023-11-21T00:05:59;17.00;;;6.38;;
56429;SDS011;42332;52.136;20.666;2023-11-21T00:08:25;13.45;;;5.72;;
56429;SDS011;42332;52.136;20.666;2023-11-21T00:10:50;11.43;;;6.45;;
56429;SDS011;42332;52.136;20.666;2023-11-21T00:13:16;15.60;;;6.93;;
56429;SDS011;42332;52.136;20.666;2023-11-21T00:15:41;17.70;;;7.65;;
56429;SDS011;42332;52.136;20.666;2023-11-21T00:18:07;17.05;;;6.90;;
56429;SDS011;42332;52.136;20.666;2023-11-21T00:20:32;15.52;;;7.13;;
56429;SDS011;42332;52.136;20.666;2023-11-21T00:22:57;19.70;;;7.28;;
56429;SDS011;42332;52.136;20.666;2023-11-21T00:25:24;24.02;;;6.53;;
56429;SDS011;42332;52.136;20.666;2023-11-21T00:27:49;18.90;;;8.13;;
56429;SDS011;42332;52.136;20.666;2023-11-21T00:30:15;19.35;;;7.32;;
56429;SDS011;42332;52.136;20.666;2023-11-21T00:32:40;20.25;;;7.85;;
56429;SDS011;42332;52.136;20.666;2023-11-21T00:35:06;19.85;;;7.70;;
56429;SDS011;42332;52.136;20.666;2023-11-21T00:37:31;28.73;;;9.77;;
56429;SDS011;42332;52.136;20.666;2023-11-21T00:39:57;18.63;;;8.50;;
56429;SDS011;42332;52.136;20.666;2023-11-21T00:42:22;18.48;;;9.27;;
56429;SDS011;42332;52.136;20.666;2023-11-21T00:44:48;14.88;;;7.03;;
56429;SDS011;42332;52.136;20.666;2023-11-21T00:47:13;23.55;;;8.60;;
56429;SDS011;42332;52.136;20.666;2023-11-21T00:49:38;22.08;;;8.77;;
56429;SDS011;42332;52.136;20.666;2023-11-21T00:52:04;23.73;;;10.02;;
56429;SDS011;42332;52.136;20.666;2023-11-21T00:54:30;14.32;;;7.03;;
56429;SDS011;42332;52.136;20.666;2023-11-21T00:56:55;21.42;;;8.48;;
56429;SDS011;42332;52.136;20.666;2023-11-21T00:59:21;24.80;;;9.02;;
56429;SDS011;42332;52.136;20.666;2023-11-21T01:01:48;23.38;;;9.38;;
56429;SDS011;42332;52.136;20.666;2023-11-21T01:04:13;22.02;;;9.30;;
56429;SDS011;42332;52.136;20.666;2023-11-21T01:06:38;14.93;;;7.93;;
56429;SDS011;42332;52.136;20.666;2023-11-21T01:09:04;15.02;;;7.82;;
56429;SDS011;42332;52.136;20.666;2023-11-21T01:11:34;18.40;;;8.63;;
56429;SDS011;42332;52.136;20.666;2023-11-21T01:14:02;25.23;;;8.73;;
56429;SDS011;42332;52.136;20.666;2023-11-21T01:16:28;19.98;;;7.70;;
56429;SDS011;42332;52.136;20.666;2023-11-21T01:18:54;14.35;;;7.97;;
56429;SDS011;42332;52.136;20.666;2023-11-21T01:21:19;28.17;;;10.60;;
56429;SDS011;42332;52.136;20.666;2023-11-21T01:23:44;21.30;;;8.93;;
56429;SDS011;42332;52.136;20.666;2023-11-21T01:26:09;24.23;;;8.95;;
56429;SDS011;42332;52.136;20.666;2023-11-21T01:28:35;19.90;;;10.45;;
56429;SDS011;42332;52.136;20.666;2023-11-21T01:31:00;27.95;;;8.93;;
56429;SDS011;42332;52.136;20.666;2023-11-21T01:33:25;23.20;;;9.05;;
56429;SDS011;42332;52.136;20.666;2023-11-21T01:35:51;22.60;;;9.90;;
56429;SDS011;42332;52.136;20.666;2023-11-21T01:38:19;20.08;;;8.15;;
56429;SDS011;42332;52.136;20.666;2023-11-21T01:40:45;23.60;;;8.85;;
56429;SDS011;42332;52.136;20.666;2023-11-21T01:43:10;19.60;;;8.75;;
56429;SDS011;42332;52.136;20.666;2023-11-21T01:45:35;25.25;;;11.38;;
56429;SDS011;42332;52.136;20.666;2023-11-21T01:48:01;27.15;;;10.52;;
56429;SDS011;42332;52.136;20.666;2023-11-21T01:50:28;28.83;;;10.82;;
56429;SDS011;42332;52.136;20.666;2023-11-21T01:52:53;25.27;;;10.95;;
56429;SDS011;42332;52.136;20.666;2023-11-21T01:55:19;27.20;;;11.55;;
56429;SDS011;42332;52.136;20.666;2023-11-21T01:57:45;22.42;;;11.02;;
56429;SDS011;42332;52.136;20.666;2023-11-21T02:00:11;33.38;;;10.65;;
56429;SDS011;42332;52.136;20.666;2023-11-21T02:02:46;23.55;;;10.55;;
56429;SDS011;42332;52.136;20.666;2023-11-21T02:05:16;34.50;;;12.93;;
56429;SDS011;42332;52.136;20.666;2023-11-21T02:07:46;30.67;;;12.65;;
56429;SDS011;42332;52.136;20.666;2023-11-21T02:10:13;41.38;;;13.50;;
56429;SDS011;42332;52.136;20.666;2023-11-21T02:12:43;25.52;;;11.15;;
56429;SDS011;42332;52.136;20.666;2023-11-21T02:15:12;32.97;;;13.27;;
56429;SDS011;42332;52.136;20.666;2023-11-21T02:17:45;22.08;;;10.75;;
56429;SDS011;42332;52.136;20.666;2023-11-21T02:20:16;25.98;;;10.05;;
56429;SDS011;42332;52.136;20.666;2023-11-21T02:22:43;23.55;;;11.00;;
56429;SDS011;42332;52.136;20.666;2023-11-21T02:25:09;27.90;;;10.80;;
56429;SDS011;42332;52.136;20.666;2023-11-21T02:27:34;25.85;;;10.13;;
56429;SDS011;42332;52.136;20.666;2023-11-21T02:30:00;22.08;;;9.25;;
56429;SDS011;42332;52.136;20.666;2023-11-21T02:32:26;22.10;;;10.05;;
56429;SDS011;42332;52.136;20.666;2023-11-21T02:34:51;26.55;;;10.27;;
56429;SDS011;42332;52.136;20.666;2023-11-21T02:37:16;20.70;;;10.40;;
56429;SDS011;42332;52.136;20.666;2023-11-21T02:39:42;32.97;;;12.50;;
56429;SDS011;42332;52.136;20.666;2023-11-21T02:42:07;28.08;;;10.65;;
56429;SDS011;42332;52.136;20.666;2023-11-21T02:44:33;29.65;;;11.45;;
56429;SDS011;42332;52.136;20.666;2023-11-21T02:46:59;22.65;;;11.30;;
56429;SDS011;42332;52.136;20.666;2023-11-21T02:49:25;28.27;;;11.65;;
56429;SDS011;42332;52.136;20.666;2023-11-21T02:51:53;27.88;;;11.95;;
56429;SDS011;42332;52.136;20.666;2023-11-21T02:54:19;21.42;;;9.80;;
56429;SDS011;42332;52.136;20.666;2023-11-21T02:56:46;31.45;;;12.05;;
56429;SDS011;42332;52.136;20.666;2023-11-21T02:59:12;26.23;;;12.35;;
56429;SDS011;42332;52.136;20.666;2023-11-21T03:01:37;22.73;;;13.05;;
56429;SDS011;42332;52.136;20.666;2023-11-21T03:04:02;27.40;;;11.70;;
56429;SDS011;42332;52.136;20.666;2023-11-21T03:06:28;30.33;;;11.57;;
56429;SDS011;42332;52.136;20.666;2023-11-21T03:08:53;31.85;;;12.60;;
56429;SDS011;42332;52.136;20.666;2023-11-21T03:11:19;32.00;;;10.65;;
56429;SDS011;42332;52.136;20.666;2023-11-21T03:13:44;24.13;;;10.45;;
56429;SDS011;42332;52.136;20.666;2023-11-21T03:16:10;20.90;;;10.98;;
56429;SDS011;42332;52.136;20.666;2023-11-21T03:18:38;20.88;;;9.40;;
56429;SDS011;42332;52.136;20.666;2023-11-21T03:21:04;27.25;;;10.00;;
56429;SDS011;42332;52.136;20.666;2023-11-21T03:23:30;21.20;;;10.00;;
56429;SDS011;42332;52.136;20.666;2023-11-21T03:25:56;25.13;;;10.50;;
56429;SDS011;42332;52.136;20.666;2023-11-21T03:28:22;19.95;;;10.40;;
56429;SDS011;42332;52.136;20.666;2023-11-21T03:30:48;20.13;;;10.00;;
56429;SDS011;42332;52.136;20.666;2023-11-21T03:33:14;12.15;;;6.32;;
56429;SDS011;42332;52.136;20.666;2023-11-21T03:35:39;21.05;;;8.55;;
56429;SDS011;42332;52.136;20.666;2023-11-21T03:38:06;23.85;;;9.73;;
56429;SDS011;42332;52.136;20.666;2023-11-21T03:40:32;36.15;;;11.75;;
56429;SDS011;42332;52.136;20.666;2023-11-21T03:42:57;21.30;;;9.70;;
56429;SDS011;42332;52.136;20.666;2023-11-21T03:45:22;18.92;;;8.15;;
56429;SDS011;42332;52.136;20.666;2023-11-21T03:47:48;18.27;;;9.10;;
56429;SDS011;42332;52.136;20.666;2023-11-21T03:50:13;22.45;;;9.70;;
56429;SDS011;42332;52.136;20.666;2023-11-21T03:52:39;17.92;;;8.43;;
56429;SDS011;42332;52.136;20.666;2023-11-21T03:55:04;21.42;;;8.07;;
56429;SDS011;42332;52.136;20.666;2023-11-21T03:57:30;18.30;;;7.15;;
56429;SDS011;42332;52.136;20.666;2023-11-21T03:59:55;21.13;;;10.38;;
56429;SDS011;42332;52.136;20.666;2023-11-21T04:02:20;21.08;;;9.05;;
56429;SDS011;42332;52.136;20.666;2023-11-21T04:04:46;16.13;;;9.57;;
56429;SDS011;42332;52.136;20.666;2023-11-21T04:07:11;20.50;;;9.35;;
56429;SDS011;42332;52.136;20.666;2023-11-21T04:09:38;17.00;;;8.65;;
56429;SDS011;42332;52.136;20.666;2023-11-21T04:12:04;20.20;;;9.13;;
56429;SDS011;42332;52.136;20.666;2023-11-21T04:14:29;23.50;;;8.02;;
56429;SDS011;42332;52.136;20.666;2023-11-21T04:16:55;19.23;;;7.78;;
56429;SDS011;42332;52.136;20.666;2023-11-21T04:19:20;21.70;;;10.75;;
56429;SDS011;42332;52.136;20.666;2023-11-21T04:21:46;22.73;;;10.20;;
56429;SDS011;42332;52.136;20.666;2023-11-21T04:24:11;19.50;;;8.73;;
56429;SDS011;42332;52.136;20.666;2023-11-21T04:26:36;18.45;;;7.13;;
56429;SDS011;42332;52.136;20.666;2023-11-21T04:29:02;24.38;;;11.07;;
56429;SDS011;42332;52.136;20.666;2023-11-21T04:31:28;21.92;;;9.75;;
56429;SDS011;42332;52.136;20.666;2023-11-21T04:33:53;19.92;;;9.68;;
56429;SDS011;42332;52.136;20.666;2023-11-21T04:36:18;16.45;;;8.10;;
56429;SDS011;42332;52.136;20.666;2023-11-21T04:38:44;22.63;;;8.57;;
56429;SDS011;42332;52.136;20.666;2023-11-21T04:41:10;17.58;;;8.02;;
56429;SDS011;42332;52.136;20.666;2023-11-21T04:43:36;23.00;;;9.90;;
56429;SDS011;42332;52.136;20.666;2023-11-21T04:46:02;15.48;;;7.25;;
56429;SDS011;42332;52.136;20.666;2023-11-21T04:48:27;13.48;;;5.72;;
56429;SDS011;42332;52.136;20.666;2023-11-21T04:50:52;22.02;;;9.13;;
56429;SDS011;42332;52.136;20.666;2023-11-21T04:53:18;17.13;;;6.82;;
56429;SDS011;42332;52.136;20.666;2023-11-21T04:55:43;11.57;;;5.53;;
56429;SDS011;42332;52.136;20.666;2023-11-21T04:58:09;15.15;;;7.38;;
56429;SDS011;42332;52.136;20.666;2023-11-21T05:00:34;17.85;;;7.47;;
56429;SDS011;42332;52.136;20.666;2023-11-21T05:03:01;16.10;;;7.93;;
56429;SDS011;42332;52.136;20.666;2023-11-21T05:05:27;12.88;;;7.80;;
56429;SDS011;42332;52.136;20.666;2023-11-21T05:07:52;16.35;;;7.82;;
56429;SDS011;42332;52.136;20.666;2023-11-21T05:10:18;15.23;;;5.43;;
56429;SDS011;42332;52.136;20.666;2023-11-21T05:12:44;12.68;;;6.57;;
56429;SDS011;42332;52.136;20.666;2023-11-21T05:15:13;15.80;;;7.13;;
56429;SDS011;42332;52.136;20.666;2023-11-21T05:17:39;9.85;;;6.22;;
56429;SDS011;42332;52.136;20.666;2023-11-21T05:20:09;12.77;;;6.18;;
56429;SDS011;42332;52.136;20.666;2023-11-21T05:22:36;11.77;;;6.60;;
56429;SDS011;42332;52.136;20.666;2023-11-21T05:25:01;16.58;;;7.70;;
56429;SDS011;42332;52.136;20.666;2023-11-21T05:27:28;16.25;;;6.50;;
56429;SDS011;42332;52.136;20.666;2023-11-21T05:29:54;8.85;;;4.18;;
56429;SDS011;42332;52.136;20.666;2023-11-21T05:32:20;14.00;;;5.82;;
56429;SDS011;42332;52.136;20.666;2023-11-21T05:34:46;14.65;;;6.07;;
56429;SDS011;42332;52.136;20.666;2023-11-21T05:37:11;13.57;;;5.95;;
56429;SDS011;42332;52.136;20.666;2023-11-21T05:39:36;10.95;;;5.40;;
56429;SDS011;42332;52.136;20.666;2023-11-21T05:42:02;9.73;;;4.97;;
56429;SDS011;42332;52.136;20.666;2023-11-21T05:44:28;11.75;;;5.40;;
56429;SDS011;42332;52.136;20.666;2023-11-21T05:46:54;8.93;;;4.90;;
56429;SDS011;42332;52.136;20.666;2023-11-21T05:49:20;6.75;;;4.40;;
56429;SDS011;42332;52.136;20.666;2023-11-21T05:51:46;19.58;;;7.38;;
56429;SDS011;42332;52.136;20.666;2023-11-21T05:54:12;10.57;;;5.57;;
56429;SDS011;42332;52.136;20.666;2023-11-21T05:56:37;10.85;;;4.53;;
56429;SDS011;42332;52.136;20.666;2023-11-21T05:59:02;11.95;;;5.07;;
56429;SDS011;42332;52.136;20.666;2023-11-21T06:01:28;7.93;;;4.72;;
56429;SDS011;42332;52.136;20.666;2023-11-21T06:03:54;8.25;;;3.85;;
56429;SDS011;42332;52.136;20.666;2023-11-21T06:06:20;12.05;;;5.72;;
56429;SDS011;42332;52.136;20.666;2023-11-21T06:08:47;9.88;;;5.78;;
56429;SDS011;42332;52.136;20.666;2023-11-21T06:11:13;9.40;;;4.88;;
56429;SDS011;42332;52.136;20.666;2023-11-21T06:13:39;14.48;;;7.10;;
56429;SDS011;42332;52.136;20.666;2023-11-21T06:16:04;14.95;;;6.95;;
56429;SDS011;42332;52.136;20.666;2023-11-21T06:18:30;18.50;;;8.82;;
56429;SDS011;42332;52.136;20.666;2023-11-21T06:20:55;13.13;;;6.80;;
56429;SDS011;42332;52.136;20.666;2023-11-21T06:23:20;14.32;;;5.68;;
56429;SDS011;42332;52.136;20.666;2023-11-21T06:25:46;14.38;;;6.70;;
56429;SDS011;42332;52.136;20.666;2023-11-21T06:28:11;17.30;;;7.13;;
56429;SDS011;42332;52.136;20.666;2023-11-21T06:30:36;15.10;;;5.50;;
56429;SDS011;42332;52.136;20.666;2023-11-21T06:33:03;15.02;;;7.00;;
56429;SDS011;42332;52.136;20.666;2023-11-21T06:35:28;16.20;;;8.70;;
56429;SDS011;42332;52.136;20.666;2023-11-21T06:37:55;16.88;;;8.05;;
56429;SDS011;42332;52.136;20.666;2023-11-21T06:40:20;20.38;;;8.88;;
56429;SDS011;42332;52.136;20.666;2023-11-21T06:42:46;15.77;;;8.40;;
56429;SDS011;42332;52.136;20.666;2023-11-21T06:45:12;13.45;;;7.38;;
56429;SDS011;42332;52.136;20.666;2023-11-21T06:47:38;17.38;;;6.70;;
56429;SDS011;42332;52.136;20.666;2023-11-21T06:50:03;18.42;;;7.88;;
56429;SDS011;42332;52.136;20.666;2023-11-21T06:52:29;13.85;;;7.18;;
56429;SDS011;42332;52.136;20.666;2023-11-21T06:54:54;14.02;;;6.93;;
56429;SDS011;42332;52.136;20.666;2023-11-21T06:57:20;15.75;;;7.50;;
56429;SDS011;42332;52.136;20.666;2023-11-21T06:59:45;16.35;;;7.10;;
56429;SDS011;42332;52.136;20.666;2023-11-21T07:02:10;12.43;;;6.25;;
56429;SDS011;42332;52.136;20.666;2023-11-21T07:04:36;13.82;;;7.57;;
56429;SDS011;42332;52.136;20.666;2023-11-21T07:07:02;15.52;;;7.03;;
56429;SDS011;42332;52.136;20.666;2023-11-21T07:09:28;12.35;;;5.95;;
56429;SDS011;42332;52.136;20.666;2023-11-21T07:11:54;8.90;;;5.40;;
56429;SDS011;42332;52.136;20.666;2023-11-21T07:14:20;16.40;;;7.13;;
56429;SDS011;42332;52.136;20.666;2023-11-21T07:16:46;13.95;;;6.32;;
56429;SDS011;42332;52.136;20.666;2023-11-21T07:19:12;12.98;;;6.60;;
56429;SDS011;42332;52.136;20.666;2023-11-21T07:21:37;13.65;;;6.70;;
56429;SDS011;42332;52.136;20.666;2023-11-21T07:24:04;9.25;;;5.18;;
56429;SDS011;42332;52.136;20.666;2023-11-21T07:26:31;13.27;;;6.97;;
56429;SDS011;42332;52.136;20.666;2023-11-21T07:28:57;10.55;;;5.18;;
56429;SDS011;42332;52.136;20.666;2023-11-21T07:31:22;14.68;;;5.75;;
56429;SDS011;42332;52.136;20.666;2023-11-21T07:33:49;8.75;;;4.38;;
56429;SDS011;42332;52.136;20.666;2023-11-21T07:36:15;11.90;;;5.43;;
56429;SDS011;42332;52.136;20.666;2023-11-21T07:38:41;12.73;;;6.22;;
56429;SDS011;42332;52.136;20.666;2023-11-21T07:41:07;7.22;;;4.45;;
56429;SDS011;42332;52.136;20.666;2023-11-21T07:43:35;15.93;;;7.85;;
56429;SDS011;42332;52.136;20.666;2023-11-21T07:46:01;15.57;;;6.43;;
56429;SDS011;42332;52.136;20.666;2023-11-21T07:48:28;13.98;;;7.13;;
56429;SDS011;42332;52.136;20.666;2023-11-21T07:50:57;9.80;;;5.88;;
56429;SDS011;42332;52.136;20.666;2023-11-21T07:53:23;15.07;;;7.03;;
56429;SDS011;42332;52.136;20.666;2023-11-21T07:55:50;11.40;;;6.35;;
56429;SDS011;42332;52.136;20.666;2023-11-21T07:58:16;18.83;;;8.40;;
56429;SDS011;42332;52.136;20.666;2023-11-21T08:00:42;16.58;;;6.85;;
56429;SDS011;42332;52.136;20.666;2023-11-21T08:03:07;16.65;;;8.40;;
56429;SDS011;42332;52.136;20.666;2023-11-21T08:05:33;15.05;;;7.10;;
56429;SDS011;42332;52.136;20.666;2023-11-21T08:07:58;13.02;;;6.10;;
56429;SDS011;42332;52.136;20.666;2023-11-21T08:10:23;14.40;;;6.97;;
56429;SDS011;42332;52.136;20.666;2023-11-21T08:12:49;15.98;;;7.07;;
56429;SDS011;42332;52.136;20.666;2023-11-21T08:15:15;13.45;;;5.30;;
56429;SDS011;42332;52.136;20.666;2023-11-21T08:17:40;14.73;;;6.60;;
56429;SDS011;42332;52.136;20.666;2023-11-21T08:20:06;16.45;;;6.63;;
56429;SDS011;42332;52.136;20.666;2023-11-21T08:22:33;13.60;;;6.60;;
56429;SDS011;42332;52.136;20.666;2023-11-21T08:24:59;11.23;;;6.10;;
56429;SDS011;42332;52.136;20.666;2023-11-21T08:27:24;14.32;;;6.65;;
56429;SDS011;42332;52.136;20.666;2023-11-21T08:29:50;11.45;;;6.15;;
56429;SDS011;42332;52.136;20.666;2023-11-21T08:32:17;12.70;;;5.95;;
56429;SDS011;42332;52.136;20.666;2023-11-21T08:34:42;9.27;;;6.38;;
56429;SDS011;42332;52.136;20.666;2023-11-21T08:37:09;12.93;;;7.93;;
56429;SDS011;42332;52.136;20.666;2023-11-21T08:39:36;11.68;;;6.65;;
56429;SDS011;42332;52.136;20.666;2023-11-21T08:42:02;15.02;;;6.78;;
56429;SDS011;42332;52.136;20.666;2023-11-21T08:44:28;14.45;;;5.85;;
56429;SDS011;42332;52.136;20.666;2023-11-21T08:46:55;16.48;;;6.50;;
56429;SDS011;42332;52.136;20.666;2023-11-21T08:49:20;11.75;;;5.75;;
56429;SDS011;42332;52.136;20.666;2023-11-21T08:51:46;17.95;;;5.97;;
56429;SDS011;42332;52.136;20.666;2023-11-21T08:54:11;10.73;;;6.05;;
56429;SDS011;42332;52.136;20.666;2023-11-21T08:56:36;12.73;;;5.30;;
56429;SDS011;42332;52.136;20.666;2023-11-21T08:59:02;10.77;;;5.72;;
56429;SDS011;42332;52.136;20.666;2023-11-21T09:01:30;16.58;;;6.25;;
56429;SDS011;42332;52.136;20.666;2023-11-21T09:03:57;11.07;;;4.90;;
56429;SDS011;42332;52.136;20.666;2023-11-21T09:06:22;21.25;;;6.78;;
56429;SDS011;42332;52.136;20.666;2023-11-21T09:08:48;19.50;;;8.38;;
56429;SDS011;42332;52.136;20.666;2023-11-21T09:11:13;16.60;;;7.05;;
56429;SDS011;42332;52.136;20.666;2023-11-21T09:13:38;19.27;;;8.38;;
56429;SDS011;42332;52.136;20.666;2023-11-21T09:16:04;15.68;;;8.02;;
56429;SDS011;42332;52.136;20.666;2023-11-21T09:18:30;16.73;;;6.82;;
56429;SDS011;42332;52.136;20.666;2023-11-21T09:20:56;17.50;;;6.65;;
56429;SDS011;42332;52.136;20.666;2023-11-21T09:23:21;15.10;;;6.78;;
56429;SDS011;42332;52.136;20.666;2023-11-21T09:25:47;21.13;;;6.53;;
56429;SDS011;42332;52.136;20.666;2023-11-21T09:28:14;15.63;;;6.82;;
56429;SDS011;42332;52.136;20.666;2023-11-21T09:30:40;14.07;;;7.05;;
56429;SDS011;42332;52.136;20.666;2023-11-21T09:33:05;10.20;;;5.47;;
56429;SDS011;42332;52.136;20.666;2023-11-21T09:35:31;17.50;;;7.85;;
56429;SDS011;42332;52.136;20.666;2023-11-21T09:37:57;14.73;;;7.18;;
56429;SDS011;42332;52.136;20.666;2023-11-21T09:40:22;12.27;;;6.13;;
56429;SDS011;42332;52.136;20.666;2023-11-21T09:42:57;16.20;;;8.02;;
56429;SDS011;42332;52.136;20.666;2023-11-21T09:45:27;14.23;;;6.53;;
56429;SDS011;42332;52.136;20.666;2023-11-21T09:47:54;12.40;;;5.82;;
56429;SDS011;42332;52.136;20.666;2023-11-21T09:50:23;15.98;;;7.55;;
56429;SDS011;42332;52.136;20.666;2023-11-21T09:55:39;23.67;;;5.25;;
56429;SDS011;42332;52.136;20.666;2023-11-21T09:58:08;22.98;;;9.20;;
56429;SDS011;42332;52.136;20.666;2023-11-21T10:00:37;18.33;;;6.38;;
56429;SDS011;42332;52.136;20.666;2023-11-21T10:03:05;12.15;;;6.40;;
56429;SDS011;42332;52.136;20.666;2023-11-21T10:05:30;17.88;;;7.93;;
56429;SDS011;42332;52.136;20.666;2023-11-21T10:07:59;19.20;;;8.68;;
56429;SDS011;42332;52.136;20.666;2023-11-21T10:10:25;19.10;;;9.18;;
56429;SDS011;42332;52.136;20.666;2023-11-21T10:12:51;13.55;;;7.80;;
56429;SDS011;42332;52.136;20.666;2023-11-21T10:15:23;21.92;;;8.80;;
56429;SDS011;42332;52.136;20.666;2023-11-21T10:17:52;18.45;;;8.23;;
56429;SDS011;42332;52.136;20.666;2023-11-21T10:20:19;11.93;;;6.72;;
56429;SDS011;42332;52.136;20.666;2023-11-21T10:22:44;14.80;;;8.00;;
56429;SDS011;42332;52.136;20.666;2023-11-21T10:25:10;23.42;;;8.40;;
56429;SDS011;42332;52.136;20.666;2023-11-21T10:27:39;24.42;;;9.43;;
56429;SDS011;42332;52.136;20.666;2023-11-21T10:30:06;24.67;;;9.10;;
56429;SDS011;42332;52.136;20.666;2023-11-21T10:32:36;12.95;;;7.35;;
56429;SDS011;42332;52.136;20.666;2023-11-21T10:35:02;22.75;;;9.00;;
56429;SDS011;42332;52.136;20.666;2023-11-21T10:37:32;17.08;;;8.93;;
56429;SDS011;42332;52.136;20.666;2023-11-21T10:40:00;17.77;;;7.43;;
56429;SDS011;42332;52.136;20.666;2023-11-21T10:42:26;37.65;;;14.95;;
56429;SDS011;42332;52.136;20.666;2023-11-21T10:44:52;21.10;;;9.50;;
56429;SDS011;42332;52.136;20.666;2023-11-21T10:47:18;22.10;;;8.52;;
56429;SDS011;42332;52.136;20.666;2023-11-21T10:49:44;23.67;;;10.18;;
56429;SDS011;42332;52.136;20.666;2023-11-21T10:52:12;14.07;;;6.63;;
56429;SDS011;42332;52.136;20.666;2023-11-21T10:54:42;18.70;;;8.45;;
56429;SDS011;42332;52.136;20.666;2023-11-21T10:57:08;17.35;;;7.45;;
56429;SDS011;42332;52.136;20.666;2023-11-21T10:59:35;13.15;;;6.70;;
56429;SDS011;42332;52.136;20.666;2023-11-21T11:02:01;19.30;;;8.55;;
56429;SDS011;42332;52.136;20.666;2023-11-21T11:04:46;24.20;;;10.48;;
56429;SDS011;42332;52.136;20.666;2023-11-21T11:07:12;13.70;;;6.30;;
56429;SDS011;42332;52.136;20.666;2023-11-21T11:09:38;21.05;;;10.75;;
56429;SDS011;42332;52.136;20.666;2023-11-21T11:12:04;19.70;;;7.65;;
56429;SDS011;42332;52.136;20.666;2023-11-21T11:14:29;17.33;;;7.32;;
56429;SDS011;42332;52.136;20.666;2023-11-21T11:16:55;10.23;;;5.18;;
56429;SDS011;42332;52.136;20.666;2023-11-21T11:19:20;19.10;;;7.68;;
56429;SDS011;42332;52.136;20.666;2023-11-21T11:35:26;19.80;;;9.57;;
56429;SDS011;42332;52.136;20.666;2023-11-21T11:37:58;29.35;;;9.23;;
56429;SDS011;42332;52.136;20.666;2023-11-21T11:40:25;20.23;;;8.43;;
56429;SDS011;42332;52.136;20.666;2023-11-21T11:43:05;25.02;;;10.55;;
56429;SDS011;42332;52.136;20.666;2023-11-21T11:45:32;21.63;;;9.75;;
56429;SDS011;42332;52.136;20.666;2023-11-21T11:47:59;25.63;;;10.95;;
56429;SDS011;42332;52.136;20.666;2023-11-21T11:50:25;20.85;;;9.80;;
56429;SDS011;42332;52.136;20.666;2023-11-21T11:52:55;16.23;;;8.80;;
56429;SDS011;42332;52.136;20.666;2023-11-21T11:55:22;19.23;;;7.82;;
56429;SDS011;42332;52.136;20.666;2023-11-21T11:57:49;14.57;;;7.10;;
56429;SDS011;42332;52.136;20.666;2023-11-21T12:00:17;12.90;;;8.45;;
56429;SDS011;42332;52.136;20.666;2023-11-21T12:02:45;11.90;;;7.00;;
56429;SDS011;42332;52.136;20.666;2023-11-21T12:05:12;19.05;;;8.82;;
56429;SDS011;42332;52.136;20.666;2023-11-21T12:07:43;16.77;;;8.80;;
56429;SDS011;42332;52.136;20.666;2023-11-21T12:10:13;20.50;;;10.43;;
56429;SDS011;42332;52.136;20.666;2023-11-21T12:12:43;17.63;;;7.47;;
56429;SDS011;42332;52.136;20.666;2023-11-21T12:15:12;13.70;;;7.28;;
56429;SDS011;42332;52.136;20.666;2023-11-21T12:17:39;17.73;;;7.72;;
56429;SDS011;42332;52.136;20.666;2023-11-21T12:20:06;20.60;;;9.85;;
56429;SDS011;42332;52.136;20.666;2023-11-21T12:22:39;20.85;;;9.70;;
56429;SDS011;42332;52.136;20.666;2023-11-21T12:25:06;22.52;;;9.55;;
56429;SDS011;42332;52.136;20.666;2023-11-21T12:27:32;20.20;;;8.70;;
56429;SDS011;42332;52.136;20.666;2023-11-21T12:29:57;22.10;;;9.65;;
56429;SDS011;42332;52.136;20.666;2023-11-21T12:32:23;19.60;;;8.55;;
56429;SDS011;42332;52.136;20.666;2023-11-21T12:34:50;19.70;;;8.80;;
56429;SDS011;42332;52.136;20.666;2023-11-21T12:37:16;14.90;;;8.23;;
56429;SDS011;42332;52.136;20.666;2023-11-21T12:39:42;27.33;;;9.50;;
56429;SDS011;42332;52.136;20.666;2023-11-21T12:42:07;13.10;;;7.63;;
56429;SDS011;42332;52.136;20.666;2023-11-21T12:44:32;16.85;;;7.47;;
56429;SDS011;42332;52.136;20.666;2023-11-21T12:46:58;24.45;;;11.15;;
56429;SDS011;42332;52.136;20.666;2023-11-21T12:49:24;22.48;;;10.88;;
56429;SDS011;42332;52.136;20.666;2023-11-21T12:51:49;30.17;;;11.93;;
56429;SDS011;42332;52.136;20.666;2023-11-21T12:54:15;23.45;;;8.93;;
56429;SDS011;42332;52.136;20.666;2023-11-21T12:56:41;21.48;;;9.98;;
56429;SDS011;42332;52.136;20.666;2023-11-21T12:59:06;10.90;;;6.43;;
56429;SDS011;42332;52.136;20.666;2023-11-21T13:01:31;17.77;;;9.07;;
56429;SDS011;42332;52.136;20.666;2023-11-21T13:03:57;12.95;;;6.35;;
56429;SDS011;42332;52.136;20.666;2023-11-21T13:06:27;15.52;;;8.07;;
56429;SDS011;42332;52.136;20.666;2023-11-21T13:08:53;24.63;;;8.25;;
56429;SDS011;42332;52.136;20.666;2023-11-21T13:11:19;15.00;;;8.65;;
56429;SDS011;42332;52.136;20.666;2023-11-21T13:13:45;18.20;;;9.00;;
56429;SDS011;42332;52.136;20.666;2023-11-21T13:16:10;17.65;;;8.35;;
56429;SDS011;42332;52.136;20.666;2023-11-21T13:18:35;15.60;;;7.88;;
56429;SDS011;42332;52.136;20.666;2023-11-21T13:21:02;13.88;;;7.65;;
56429;SDS011;42332;52.136;20.666;2023-11-21T13:23:39;14.52;;;7.30;;
56429;SDS011;42332;52.136;20.666;2023-11-21T13:26:06;12.98;;;7.40;;
56429;SDS011;42332;52.136;20.666;2023-11-21T13:28:32;16.73;;;8.35;;
56429;SDS011;42332;52.136;20.666;2023-11-21T13:30:58;22.00;;;11.10;;
56429;SDS011;42332;52.136;20.666;2023-11-21T13:33:29;21.50;;;10.48;;
56429;SDS011;42332;52.136;20.666;2023-11-21T13:35:55;24.13;;;10.50;;
56429;SDS011;42332;52.136;20.666;2023-11-21T13:38:21;20.45;;;10.13;;
56429;SDS011;42332;52.136;20.666;2023-11-21T13:40:48;22.52;;;10.60;;
56429;SDS011;42332;52.136;20.666;2023-11-21T13:43:15;13.93;;;6.20;;
56429;SDS011;42332;52.136;20.666;2023-11-21T13:45:43;23.73;;;9.85;;
56429;SDS011;42332;52.136;20.666;2023-11-21T13:48:11;28.58;;;10.07;;
56429;SDS011;42332;52.136;20.666;2023-11-21T13:50:39;23.55;;;10.48;;
56429;SDS011;42332;52.136;20.666;2023-11-21T13:53:28;16.52;;;8.85;;
56429;SDS011;42332;52.136;20.666;2023-11-21T13:55:53;21.65;;;10.48;;
56429;SDS011;42332;52.136;20.666;2023-11-21T13:58:19;21.73;;;10.35;;
56429;SDS011;42332;52.136;20.666;2023-11-21T14:00:49;16.73;;;7.20;;
56429;SDS011;42332;52.136;20.666;2023-11-21T14:03:24;18.35;;;10.60;;
56429;SDS011;42332;52.136;20.666;2023-11-21T14:05:57;24.80;;;11.05;;
56429;SDS011;42332;52.136;20.666;2023-11-21T14:08:25;21.73;;;9.52;;
56429;SDS011;42332;52.136;20.666;2023-11-21T14:10:57;16.40;;;7.80;;
56429;SDS011;42332;52.136;20.666;2023-11-21T14:13:24;23.75;;;10.35;;
56429;SDS011;42332;52.136;20.666;2023-11-21T14:15:50;17.35;;;9.18;;
56429;SDS011;42332;52.136;20.666;2023-11-21T14:18:17;16.00;;;9.18;;
56429;SDS011;42332;52.136;20.666;2023-11-21T14:20:51;14.30;;;8.35;;
56429;SDS011;42332;52.136;20.666;2023-11-21T14:23:16;22.13;;;10.93;;
56429;SDS011;42332;52.136;20.666;2023-11-21T14:25:43;14.40;;;8.63;;
56429;SDS011;42332;52.136;20.666;2023-11-21T14:28:08;21.73;;;10.38;;
56429;SDS011;42332;52.136;20.666;2023-11-21T14:30:36;22.95;;;9.57;;